PWSweather.com
Personal Weather Stations
Station Observations
KJ4AJP
Beautiful Downtown Gardner, Martin, TN 38237

Beautiful Downtown GardnerMartin, TN 38237

Lat: 36.358, Lon: -88.8994

Elevation: 384.3

Station Type: TP1080WC

http://weather.mambm.com/

High Low Average
Temperature 55.4°F13.0°C 41.9°F5.5°C 48.8°F9.3°C
Dew Point 55.1°F12.8°C 41.6°F5.3°C 48.5°F9.2°C
Winds 8.3 mph 13.4 kmh Calm Calm 2.0 mph SSE3.2 kmh SSE
Wind Gusts 16.8 mph27.0 kmh 1.6 mph2.6 kmh 6.0 mph9.7 kmh
Humidity 99% 99% 99%
Pressure 30.36 in1028.1 mb 30.12 in1020.0 mb -
Precipitation 0.30 in7.6 mm - -
Hour Temp Dew Point Humidity Winds Wind Gusts Pressure Precip Precip Rate Daily Precip Total
12:00 AM 41.9°F5.5°C 41.6°F5.3°C 99% 3.1 mph NNE5.0 kmh NNE 11.4 mph18.3 kmh 30.28 in1025.4 mb 0.18 in4.6 mm 0.00 in0.0 mm 0.18 in4.6 mm
12:15 AM 41.9°F5.5°C 41.6°F5.3°C 99% 5.4 mph N8.7 kmh N 13.0 mph20.9 kmh 30.25 in1024.4 mb 0.17 in4.3 mm 0.00 in0.0 mm 0.02 in0.5 mm
12:30 AM 41.9°F5.5°C 41.6°F5.3°C 99% 6.9 mph N11.1 kmh N 14.5 mph23.3 kmh 30.24 in1024.0 mb 0.11 in2.8 mm 0.00 in0.0 mm 0.05 in1.3 mm
12:45 AM 41.9°F5.5°C 41.6°F5.3°C 99% 2.2 mph NE3.5 kmh NE 14.5 mph23.3 kmh 30.24 in1024.0 mb 0.08 in2.0 mm 0.00 in0.0 mm 0.06 in1.5 mm
01:00 AM 42.1°F5.6°C 41.8°F5.4°C 99% 3.8 mph NE6.1 kmh NE 11.4 mph18.3 kmh 30.23 in1023.7 mb 0.06 in1.5 mm 0.00 in0.0 mm 0.06 in1.5 mm
01:15 AM 42.3°F5.7°C 42.0°F5.6°C 99% 5.4 mph N8.7 kmh N 9.2 mph14.8 kmh 30.24 in1024.0 mb 0.06 in1.5 mm 0.00 in0.0 mm 0.08 in2.0 mm
01:30 AM 42.4°F5.8°C 42.2°F5.7°C 99% 1.6 mph NNE2.6 kmh NNE 6.9 mph11.1 kmh 30.26 in1024.7 mb 0.06 in1.5 mm 0.00 in0.0 mm 0.11 in2.8 mm
01:45 AM 42.4°F5.8°C 42.2°F5.7°C 99% 1.6 mph NNE2.6 kmh NNE 6.0 mph9.7 kmh 30.25 in1024.4 mb 0.06 in1.5 mm 0.00 in0.0 mm 0.12 in3.0 mm
02:00 AM 42.6°F5.9°C 42.4°F5.8°C 99% 1.6 mph NE2.6 kmh NE 6.0 mph9.7 kmh 30.23 in1023.7 mb 0.07 in1.8 mm 0.01 in0.3 mm 0.13 in3.3 mm
02:15 AM 42.8°F6.0°C 42.5°F5.8°C 99% 2.2 mph N3.5 kmh N 5.4 mph8.7 kmh 30.24 in1024.0 mb 0.05 in1.3 mm 0.00 in0.0 mm 0.13 in3.3 mm
02:30 AM 42.8°F6.0°C 42.5°F5.8°C 99% 2.2 mph N3.5 kmh N 3.8 mph6.1 kmh 30.24 in1024.0 mb 0.01 in0.3 mm 0.00 in0.0 mm 0.13 in3.3 mm
02:45 AM 43.0°F6.1°C 42.7°F5.9°C 99% 1.6 mph N2.6 kmh N 4.5 mph7.2 kmh 30.23 in1023.7 mb 0.01 in0.3 mm 0.00 in0.0 mm 0.13 in3.3 mm
03:00 AM 43.0°F6.1°C 42.7°F5.9°C 99% 3.1 mph ENE5.0 kmh ENE 6.0 mph9.7 kmh 30.20 in1022.7 mb 0.00 in0.0 mm 0.00 in0.0 mm 0.13 in3.3 mm
03:15 AM 43.0°F6.1°C 42.7°F5.9°C 99% 3.1 mph E5.0 kmh E 5.4 mph8.7 kmh 30.21 in1023.0 mb 0.00 in0.0 mm 0.00 in0.0 mm 0.13 in3.3 mm
03:30 AM 43.2°F6.2°C 42.9°F6.1°C 99% 7.6 mph E12.2 kmh E 9.8 mph15.8 kmh 30.19 in1022.4 mb 0.00 in0.0 mm 0.00 in0.0 mm 0.13 in3.3 mm
03:45 AM 43.3°F6.3°C 43.1°F6.2°C 99% 6.0 mph E9.7 kmh E 9.8 mph15.8 kmh 30.15 in1021.0 mb 0.00 in0.0 mm 0.00 in0.0 mm 0.13 in3.3 mm
04:00 AM 43.7°F6.5°C 43.4°F6.3°C 99% 8.3 mph E13.4 kmh E 16.8 mph27.0 kmh 30.12 in1020.0 mb 0.00 in0.0 mm 0.00 in0.0 mm 0.13 in3.3 mm
04:15 AM 43.9°F6.6°C 43.6°F6.4°C 99% 0.7 mph E1.1 kmh E 12.1 mph19.5 kmh 30.15 in1021.0 mb 0.00 in0.0 mm 0.00 in0.0 mm 0.13 in3.3 mm
04:30 AM 44.4°F6.9°C 44.2°F6.8°C 99% 3.1 mph WNW5.0 kmh WNW 6.9 mph11.1 kmh 30.24 in1024.0 mb 0.00 in0.0 mm 0.00 in0.0 mm 0.13 in3.3 mm
04:45 AM 44.4°F6.9°C 44.2°F6.8°C 99% 0.7 mph NW1.1 kmh NW 6.0 mph9.7 kmh 30.24 in1024.0 mb 0.00 in0.0 mm 0.00 in0.0 mm 0.13 in3.3 mm
05:00 AM 44.4°F6.9°C 44.2°F6.8°C 99% 0.7 mph NW1.1 kmh NW 4.5 mph7.2 kmh 30.24 in1024.0 mb 0.00 in0.0 mm 0.00 in0.0 mm 0.13 in3.3 mm
05:15 AM 44.4°F6.9°C 44.2°F6.8°C 99% 2.2 mph NW3.5 kmh NW 4.5 mph7.2 kmh 30.25 in1024.4 mb 0.00 in0.0 mm 0.00 in0.0 mm 0.13 in3.3 mm
05:30 AM 44.1°F6.7°C 43.8°F6.6°C 99% 1.6 mph NW2.6 kmh NW 4.5 mph7.2 kmh 30.25 in1024.4 mb 0.00 in0.0 mm 0.00 in0.0 mm 0.13 in3.3 mm
05:45 AM 44.1°F6.7°C 43.8°F6.6°C 99% 3.8 mph NNW6.1 kmh NNW 6.0 mph9.7 kmh 30.26 in1024.7 mb 0.00 in0.0 mm 0.00 in0.0 mm 0.13 in3.3 mm
06:00 AM 43.9°F6.6°C 43.6°F6.4°C 99% 3.8 mph NNW6.1 kmh NNW 7.6 mph12.2 kmh 30.27 in1025.1 mb 0.00 in0.0 mm 0.00 in0.0 mm 0.13 in3.3 mm
06:15 AM 43.7°F6.5°C 43.4°F6.3°C 99% 3.1 mph NNW5.0 kmh NNW 7.6 mph12.2 kmh 30.27 in1025.1 mb 0.00 in0.0 mm 0.00 in0.0 mm 0.13 in3.3 mm
06:30 AM 43.5°F6.4°C 43.3°F6.3°C 99% 3.1 mph N5.0 kmh N 9.2 mph14.8 kmh 30.27 in1025.1 mb 0.00 in0.0 mm 0.00 in0.0 mm 0.13 in3.3 mm
06:45 AM 43.3°F6.3°C 43.1°F6.2°C 99% 2.2 mph NNW3.5 kmh NNW 5.4 mph8.7 kmh 30.28 in1025.4 mb 0.00 in0.0 mm 0.00 in0.0 mm 0.13 in3.3 mm
07:00 AM 43.3°F6.3°C 43.1°F6.2°C 99% 3.8 mph N6.1 kmh N 8.3 mph13.4 kmh 30.29 in1025.7 mb 0.00 in0.0 mm 0.00 in0.0 mm 0.13 in3.3 mm
07:15 AM 43.3°F6.3°C 43.1°F6.2°C 99% 3.1 mph N5.0 kmh N 8.3 mph13.4 kmh 30.29 in1025.7 mb 0.00 in0.0 mm 0.00 in0.0 mm 0.13 in3.3 mm
07:30 AM 43.5°F6.4°C 43.3°F6.3°C 99% 2.2 mph N3.5 kmh N 7.6 mph12.2 kmh 30.30 in1026.1 mb 0.00 in0.0 mm 0.00 in0.0 mm 0.13 in3.3 mm
07:45 AM 43.7°F6.5°C 43.4°F6.3°C 99% 0.7 mph NE1.1 kmh NE 6.0 mph9.7 kmh 30.31 in1026.4 mb 0.00 in0.0 mm 0.00 in0.0 mm 0.13 in3.3 mm
08:00 AM 43.9°F6.6°C 43.6°F6.4°C 99% 0.7 mph NNE1.1 kmh NNE 4.5 mph7.2 kmh 30.32 in1026.8 mb 0.00 in0.0 mm 0.00 in0.0 mm 0.13 in3.3 mm
08:15 AM 44.1°F6.7°C 43.8°F6.6°C 99% 0.7 mph NNE1.1 kmh NNE 3.8 mph6.1 kmh 30.33 in1027.1 mb 0.00 in0.0 mm 0.00 in0.0 mm 0.13 in3.3 mm
08:30 AM 44.6°F7.0°C 44.3°F6.8°C 99% 0.7 mph N1.1 kmh N 3.8 mph6.1 kmh 30.33 in1027.1 mb 0.00 in0.0 mm 0.00 in0.0 mm 0.13 in3.3 mm
08:45 AM 45.0°F7.2°C 44.7°F7.1°C 99% 0.7 mph NE1.1 kmh NE 3.8 mph6.1 kmh 30.33 in1027.1 mb 0.00 in0.0 mm 0.00 in0.0 mm 0.13 in3.3 mm
09:00 AM 45.1°F7.3°C 44.9°F7.2°C 99% 1.6 mph NE2.6 kmh NE 4.5 mph7.2 kmh 30.33 in1027.1 mb 0.00 in0.0 mm 0.00 in0.0 mm 0.13 in3.3 mm
09:15 AM 45.3°F7.4°C 45.1°F7.3°C 99% 0.7 mph NNE1.1 kmh NNE 3.1 mph5.0 kmh 30.33 in1027.1 mb 0.00 in0.0 mm 0.00 in0.0 mm 0.13 in3.3 mm
09:30 AM 45.5°F7.5°C 45.2°F7.3°C 99% Calm Calm 1.6 mph2.6 kmh 30.34 in1027.4 mb 0.00 in0.0 mm 0.00 in0.0 mm 0.13 in3.3 mm
09:45 AM 46.2°F7.9°C 46.0°F7.8°C 99% 1.6 mph NE2.6 kmh NE 3.1 mph5.0 kmh 30.34 in1027.4 mb 0.00 in0.0 mm 0.00 in0.0 mm 0.13 in3.3 mm
10:00 AM 46.6°F8.1°C 46.3°F7.9°C 99% 0.7 mph NNE1.1 kmh NNE 3.8 mph6.1 kmh 30.34 in1027.4 mb 0.00 in0.0 mm 0.00 in0.0 mm 0.13 in3.3 mm
10:15 AM 46.9°F8.3°C 46.7°F8.2°C 99% 0.7 mph N1.1 kmh N 5.4 mph8.7 kmh 30.35 in1027.8 mb 0.00 in0.0 mm 0.00 in0.0 mm 0.13 in3.3 mm
10:30 AM 47.5°F8.6°C 47.2°F8.4°C 99% 0.7 mph S1.1 kmh S 3.1 mph5.0 kmh 30.35 in1027.8 mb 0.00 in0.0 mm 0.00 in0.0 mm 0.13 in3.3 mm
10:45 AM 47.8°F8.8°C 47.6°F8.7°C 99% Calm Calm 3.1 mph5.0 kmh 30.35 in1027.8 mb 0.00 in0.0 mm 0.00 in0.0 mm 0.13 in3.3 mm
11:00 AM 48.2°F9.0°C 47.9°F8.8°C 99% 0.7 mph ESE1.1 kmh ESE 3.8 mph6.1 kmh 30.36 in1028.1 mb 0.01 in0.3 mm 0.01 in0.3 mm 0.14 in3.6 mm
11:15 AM 48.4°F9.1°C 48.1°F8.9°C 99% 2.2 mph SSE3.5 kmh SSE 5.4 mph8.7 kmh 30.35 in1027.8 mb 0.01 in0.3 mm 0.00 in0.0 mm 0.14 in3.6 mm
11:30 AM 49.1°F9.5°C 48.8°F9.3°C 99% Calm Calm 4.5 mph7.2 kmh 30.34 in1027.4 mb 0.01 in0.3 mm 0.00 in0.0 mm 0.14 in3.6 mm
11:45 AM 49.6°F9.8°C 49.4°F9.7°C 99% Calm Calm 3.1 mph5.0 kmh 30.34 in1027.4 mb 0.01 in0.3 mm 0.00 in0.0 mm 0.14 in3.6 mm
12:00 PM 50.2°F10.1°C 49.9°F9.9°C 99% 3.1 mph SW5.0 kmh SW 4.5 mph7.2 kmh 30.34 in1027.4 mb 0.00 in0.0 mm 0.00 in0.0 mm 0.14 in3.6 mm
12:15 PM 50.7°F10.4°C 50.5°F10.3°C 99% 0.7 mph S1.1 kmh S 3.8 mph6.1 kmh 30.32 in1026.8 mb 0.00 in0.0 mm 0.00 in0.0 mm 0.14 in3.6 mm
12:30 PM 51.4°F10.8°C 51.2°F10.7°C 99% Calm Calm 4.5 mph7.2 kmh 30.32 in1026.8 mb 0.00 in0.0 mm 0.00 in0.0 mm 0.14 in3.6 mm
12:45 PM 52.5°F11.4°C 52.3°F11.3°C 99% 2.2 mph S3.5 kmh S 4.5 mph7.2 kmh 30.31 in1026.4 mb 0.00 in0.0 mm 0.00 in0.0 mm 0.14 in3.6 mm
01:00 PM 52.9°F11.6°C 52.6°F11.4°C 99% 1.6 mph SE2.6 kmh SE 4.5 mph7.2 kmh 30.31 in1026.4 mb 0.00 in0.0 mm 0.00 in0.0 mm 0.14 in3.6 mm
01:15 PM 53.6°F12.0°C 53.3°F11.8°C 99% 1.6 mph SE2.6 kmh SE 3.8 mph6.1 kmh 30.30 in1026.1 mb 0.00 in0.0 mm 0.00 in0.0 mm 0.14 in3.6 mm
01:30 PM 54.0°F12.2°C 53.7°F12.1°C 99% 2.2 mph SW3.5 kmh SW 3.8 mph6.1 kmh 30.29 in1025.7 mb 0.00 in0.0 mm 0.00 in0.0 mm 0.14 in3.6 mm
01:45 PM 54.1°F12.3°C 53.9°F12.2°C 99% 3.8 mph S6.1 kmh S 6.9 mph11.1 kmh 30.28 in1025.4 mb 0.00 in0.0 mm 0.00 in0.0 mm 0.14 in3.6 mm
02:00 PM 54.0°F12.2°C 53.7°F12.1°C 99% 1.6 mph ESE2.6 kmh ESE 4.5 mph7.2 kmh 30.28 in1025.4 mb 0.00 in0.0 mm 0.00 in0.0 mm 0.14 in3.6 mm
02:15 PM 54.3°F12.4°C 54.1°F12.3°C 99% 1.6 mph SE2.6 kmh SE 4.5 mph7.2 kmh 30.27 in1025.1 mb 0.00 in0.0 mm 0.00 in0.0 mm 0.14 in3.6 mm
02:30 PM 54.5°F12.5°C 54.2°F12.3°C 99% 2.2 mph S3.5 kmh S 3.8 mph6.1 kmh 30.27 in1025.1 mb 0.00 in0.0 mm 0.00 in0.0 mm 0.14 in3.6 mm
02:45 PM 54.9°F12.7°C 54.6°F12.6°C 99% 0.7 mph SSE1.1 kmh SSE 3.8 mph6.1 kmh 30.27 in1025.1 mb 0.00 in0.0 mm 0.00 in0.0 mm 0.14 in3.6 mm
03:00 PM 54.9°F12.7°C 54.6°F12.6°C 99% 1.6 mph SSW2.6 kmh SSW 4.5 mph7.2 kmh 30.28 in1025.4 mb 0.00 in0.0 mm 0.00 in0.0 mm 0.14 in3.6 mm
03:15 PM 55.2°F12.9°C 55.0°F12.8°C 99% 0.7 mph S1.1 kmh S 2.2 mph3.5 kmh 30.27 in1025.1 mb 0.00 in0.0 mm 0.00 in0.0 mm 0.14 in3.6 mm
03:30 PM 55.2°F12.9°C 55.0°F12.8°C 99% 0.7 mph SSW1.1 kmh SSW 3.8 mph6.1 kmh 30.26 in1024.7 mb 0.00 in0.0 mm 0.00 in0.0 mm 0.14 in3.6 mm
03:45 PM 55.4°F13.0°C 55.1°F12.8°C 99% Calm Calm 3.1 mph5.0 kmh 30.27 in1025.1 mb 0.00 in0.0 mm 0.00 in0.0 mm 0.14 in3.6 mm
04:00 PM 55.2°F12.9°C 55.0°F12.8°C 99% 0.7 mph S1.1 kmh S 3.1 mph5.0 kmh 30.27 in1025.1 mb 0.00 in0.0 mm 0.00 in0.0 mm 0.14 in3.6 mm
04:15 PM 55.4°F13.0°C 55.1°F12.8°C 99% 0.7 mph W1.1 kmh W 3.1 mph5.0 kmh 30.26 in1024.7 mb 0.00 in0.0 mm 0.00 in0.0 mm 0.14 in3.6 mm
04:30 PM 55.4°F13.0°C 55.1°F12.8°C 99% 0.7 mph WNW1.1 kmh WNW 2.2 mph3.5 kmh 30.27 in1025.1 mb 0.00 in0.0 mm 0.00 in0.0 mm 0.14 in3.6 mm
04:45 PM 55.0°F12.8°C 54.8°F12.7°C 99% 0.7 mph NW1.1 kmh NW 3.8 mph6.1 kmh 30.28 in1025.4 mb 0.00 in0.0 mm 0.00 in0.0 mm 0.14 in3.6 mm
05:00 PM 54.5°F12.5°C 54.2°F12.3°C 99% 0.7 mph NW1.1 kmh NW 3.8 mph6.1 kmh 30.28 in1025.4 mb 0.00 in0.0 mm 0.00 in0.0 mm 0.14 in3.6 mm
05:15 PM 54.1°F12.3°C 53.9°F12.2°C 99% 1.6 mph NW2.6 kmh NW 2.2 mph3.5 kmh 30.28 in1025.4 mb 0.00 in0.0 mm 0.00 in0.0 mm 0.14 in3.6 mm
05:30 PM 53.8°F12.1°C 53.5°F11.9°C 99% 0.7 mph NNW1.1 kmh NNW 3.1 mph5.0 kmh 30.28 in1025.4 mb 0.00 in0.0 mm 0.00 in0.0 mm 0.14 in3.6 mm
05:45 PM 53.6°F12.0°C 53.3°F11.8°C 99% 1.6 mph N2.6 kmh N 3.8 mph6.1 kmh 30.28 in1025.4 mb 0.00 in0.0 mm 0.00 in0.0 mm 0.14 in3.6 mm
06:00 PM 53.4°F11.9°C 53.2°F11.8°C 99% 3.1 mph N5.0 kmh N 5.4 mph8.7 kmh 30.28 in1025.4 mb 0.00 in0.0 mm 0.00 in0.0 mm 0.14 in3.6 mm
06:15 PM 53.1°F11.7°C 52.8°F11.6°C 99% 0.7 mph N1.1 kmh N 5.4 mph8.7 kmh 30.28 in1025.4 mb 0.00 in0.0 mm 0.00 in0.0 mm 0.14 in3.6 mm
06:30 PM 52.9°F11.6°C 52.6°F11.4°C 99% 0.7 mph SE1.1 kmh SE 3.1 mph5.0 kmh 30.27 in1025.1 mb 0.00 in0.0 mm 0.00 in0.0 mm 0.14 in3.6 mm
06:45 PM 52.9°F11.6°C 52.6°F11.4°C 99% 2.2 mph E3.5 kmh E 3.1 mph5.0 kmh 30.27 in1025.1 mb 0.00 in0.0 mm 0.00 in0.0 mm 0.14 in3.6 mm
07:00 PM 52.9°F11.6°C 52.6°F11.4°C 99% Calm Calm 3.1 mph5.0 kmh 30.28 in1025.4 mb 0.00 in0.0 mm 0.00 in0.0 mm 0.14 in3.6 mm
07:15 PM 52.7°F11.5°C 52.4°F11.3°C 99% Calm Calm 1.6 mph2.6 kmh 30.28 in1025.4 mb 0.00 in0.0 mm 0.00 in0.0 mm 0.14 in3.6 mm
07:30 PM 52.7°F11.5°C 52.4°F11.3°C 99% Calm Calm 2.2 mph3.5 kmh 30.27 in1025.1 mb 0.00 in0.0 mm 0.00 in0.0 mm 0.14 in3.6 mm
07:45 PM 52.5°F11.4°C 52.3°F11.3°C 99% Calm Calm 1.6 mph2.6 kmh 30.27 in1025.1 mb 0.00 in0.0 mm 0.00 in0.0 mm 0.14 in3.6 mm
08:00 PM 52.5°F11.4°C 52.3°F11.3°C 99% Calm Calm 2.2 mph3.5 kmh 30.27 in1025.1 mb 0.00 in0.0 mm 0.00 in0.0 mm 0.14 in3.6 mm
08:15 PM 52.5°F11.4°C 52.3°F11.3°C 99% 1.6 mph N2.6 kmh N 4.5 mph7.2 kmh 30.27 in1025.1 mb 0.00 in0.0 mm 0.00 in0.0 mm 0.14 in3.6 mm
08:30 PM 52.5°F11.4°C 52.3°F11.3°C 99% 3.1 mph NNW5.0 kmh NNW 3.8 mph6.1 kmh 30.26 in1024.7 mb 0.00 in0.0 mm 0.00 in0.0 mm 0.14 in3.6 mm
08:45 PM 52.5°F11.4°C 52.3°F11.3°C 99% 0.7 mph NE1.1 kmh NE 3.8 mph6.1 kmh 30.26 in1024.7 mb 0.01 in0.3 mm 0.04 in1.0 mm 0.15 in3.8 mm
09:00 PM 52.3°F11.3°C 52.1°F11.2°C 99% 0.7 mph NE1.1 kmh NE 4.5 mph7.2 kmh 30.25 in1024.4 mb 0.01 in0.3 mm 0.00 in0.0 mm 0.15 in3.8 mm
09:15 PM 52.3°F11.3°C 52.1°F11.2°C 99% Calm Calm 4.5 mph7.2 kmh 30.25 in1024.4 mb 0.02 in0.5 mm 0.04 in1.0 mm 0.17 in4.3 mm
09:30 PM 52.3°F11.3°C 52.1°F11.2°C 99% 1.6 mph ENE2.6 kmh ENE 4.5 mph7.2 kmh 30.23 in1023.7 mb 0.02 in0.5 mm 0.00 in0.0 mm 0.17 in4.3 mm
09:45 PM 52.3°F11.3°C 52.1°F11.2°C 99% 1.6 mph NE2.6 kmh NE 5.4 mph8.7 kmh 30.22 in1023.4 mb 0.01 in0.3 mm 0.00 in0.0 mm 0.17 in4.3 mm
10:00 PM 52.5°F11.4°C 52.3°F11.3°C 99% 0.7 mph NE1.1 kmh NE 3.8 mph6.1 kmh 30.21 in1023.0 mb 0.01 in0.3 mm 0.00 in0.0 mm 0.17 in4.3 mm
10:15 PM 52.7°F11.5°C 52.4°F11.3°C 99% 4.5 mph N7.2 kmh N 6.9 mph11.1 kmh 30.21 in1023.0 mb 0.00 in0.0 mm 0.00 in0.0 mm 0.17 in4.3 mm
10:30 PM 52.5°F11.4°C 52.3°F11.3°C 99% 2.2 mph NE3.5 kmh NE 5.4 mph8.7 kmh 30.20 in1022.7 mb 0.00 in0.0 mm 0.00 in0.0 mm 0.17 in4.3 mm
10:45 PM 52.7°F11.5°C 52.4°F11.3°C 99% 2.2 mph NW3.5 kmh NW 8.3 mph13.4 kmh 30.23 in1023.7 mb 0.00 in0.0 mm 0.00 in0.0 mm 0.17 in4.3 mm
11:00 PM 52.2°F11.2°C 51.9°F11.1°C 99% 3.8 mph NE6.1 kmh NE 8.3 mph13.4 kmh 30.19 in1022.4 mb 0.00 in0.0 mm 0.00 in0.0 mm 0.17 in4.3 mm
11:15 PM 52.2°F11.2°C 51.9°F11.1°C 99% 2.2 mph NNW3.5 kmh NNW 16.8 mph27.0 kmh 30.26 in1024.7 mb 0.02 in0.5 mm 0.08 in2.0 mm 0.19 in4.8 mm
11:30 PM 52.3°F11.3°C 52.1°F11.2°C 99% 1.6 mph NNE2.6 kmh NNE 11.4 mph18.3 kmh 30.23 in1023.7 mb 0.11 in2.8 mm 0.36 in9.1 mm 0.27 in6.9 mm
11:45 PM 52.2°F11.2°C 51.9°F11.1°C 99% 3.1 mph NNW5.0 kmh NNW 6.0 mph9.7 kmh 30.23 in1023.7 mb 0.13 in3.3 mm 0.08 in2.0 mm 0.30 in7.6 mm